Gas Snapper — V7TZ3 — position and weather

sailwx.info

Track history (hours):
 
Tides and Currents Weather Stations Pressure Air Temp Water Temp Dewpoint Dewpoint Depression Visibility Wind Speed Wind Dir Waves Ship Positions

Gas Snapper

Last reported at 2014-Jul-29 08:30 UTC. Time now 2014-Jul-29 19:01 UTC.
Position N 45°26' E 031°17'.

Length 174 m; draft 7.3 m.

Type: Ship (hazmat cat D). MMSI: 538003911.

Date/timePositionNaut miles runAvg speedWind from/ knotsBaromVisibWave heightAir tempDewpointWater temp
2014-Jul-29 08:30N 45°26' E 031°17'1414.8
2014-Jul-29 07:32N 45°12' E 031°16'1515.1
2014-Jul-29 06:33N 44°58' E 031°09'32510.1
2014-Jul-27 22:31N 40°30' E 026°59'1413.4
2014-Jul-27 21:29N 40°24' E 026°42'3411.6
2014-Jul-27 18:33N 40°01' E 026°10'1312.8
2014-Jul-27 17:34N 39°53' E 025°56'5 5.5
2014-Jul-27 16:33N 39°48' E 025°56'0 0.0
2014-Jul-27 15:21N 39°48' E 025°56'0 0.0
2014-Jul-27 14:33N 39°48' E 025°56'0 0.0
2014-Jul-27 13:28N 39°48' E 025°56'0 0.0
2014-Jul-27 12:33N 39°48' E 025°56'0 0.0
2014-Jul-27 11:33N 39°48' E 025°56'0 0.0
2014-Jul-27 10:33N 39°48' E 025°56'0 0.0
2014-Jul-27 09:22N 39°48' E 025°56'0 0.0
2014-Jul-27 07:14N 39°48' E 025°56'4 4.2
2014-Jul-27 06:20N 39°45' E 025°53'911.1
2014-Jul-27 05:32N 39°39' E 025°44'1515.5
2014-Jul-27 04:34N 39°26' E 025°36'4715.2
2014-Jul-27 01:29N 38°44' E 025°08'7515.1
2014-Jul-26 20:31N 37°36' E 024°27'3615.5
2014-Jul-26 18:10N 37°04' E 024°07'1016.0
2014-Jul-26 17:33N 36°55' E 024°03'42014.7
2014-Jul-25 13:04N 36°24' E 015°21'816.6
2014-Jul-25 12:33N 36°24' E 015°11'1716.9
2014-Jul-25 11:33N 36°24' E 014°50'1717.4
2014-Jul-25 10:33N 36°24' E 014°28'1717.0
2014-Jul-25 09:33N 36°25' E 014°07'1716.7
2014-Jul-25 08:33N 36°28' E 013°47'1615.9
2014-Jul-25 07:33N 36°34' E 013°28'1515.0
2014-Jul-25 06:33N 36°39' E 013°11'1615.8
2014-Jul-25 05:33N 36°45' E 012°53'1817.6
2014-Jul-25 04:33N 36°51' E 012°32'1717.3
2014-Jul-25 03:33N 36°57' E 012°12'1716.7
2014-Jul-25 02:33N 37°04' E 011°52'3616.6
2014-Jul-25 00:24N 37°21' E 011°13'1416.1
2014-Jul-24 23:33N 37°26' E 010°57'1716.5
2014-Jul-24 22:33N 37°31' E 010°37'1716.8
2014-Jul-24 21:32N 37°34' E 010°16'1717.2
2014-Jul-24 20:33N 37°35' E 009°55'1717.3
2014-Jul-24 19:33N 37°36' E 009°33'1717.0
2014-Jul-24 18:33N 37°37' E 009°12'1716.7
2014-Jul-24 17:33N 37°37' E 008°51'1616.4
2014-Jul-24 16:33N 37°37' E 008°30'1615.8
2014-Jul-24 15:33N 37°37' E 008°10'1615.9
2014-Jul-24 14:32N 37°34' E 007°49'5216.1
2014-Jul-24 11:18N 37°27' E 006°45'1216.3
2014-Jul-24 10:33N 37°25' E 006°29'1615.8
2014-Jul-24 09:33N 37°22' E 006°10'1615.9
2014-Jul-24 08:33N 37°20' E 005°50'1716.5
2014-Jul-24 07:30N 37°18' E 005°28'1516.4
2014-Jul-24 06:33N 37°15' E 005°09'1616.2
2014-Jul-24 05:33N 37°12' E 004°49'1616.4
2014-Jul-24 04:33N 37°10' E 004°29'1716.8
2014-Jul-24 03:33N 37°08' E 004°08'1717.1
2014-Jul-24 02:33N 37°05' E 003°47'1917.8
2014-Jul-24 01:30N 37°02' E 003°24'1516.0
2014-Jul-24 00:33N 37°00' E 003°04'1717.3
2014-Jul-23 23:33N 36°58' E 002°43'1717.6
2014-Jul-23 22:33N 36°55' E 002°22'1716.9
2014-Jul-23 21:33N 36°51' E 002°01'1717.1
2014-Jul-23 20:33N 36°49' E 001°40'1616.2
2014-Jul-23 19:33N 36°47' E 001°20'1716.5
2014-Jul-23 18:33N 36°45' E 000°59'1616.3
2014-Jul-23 17:33N 36°42' E 000°39'1716.8
2014-Jul-23 16:33N 36°39' E 000°19'1716.5
2014-Jul-23 15:33N 36°37' W 000°02'1716.5
2014-Jul-23 14:33N 36°34' W 000°22'1716.8
2014-Jul-23 13:33N 36°32' W 000°43'1716.5
2014-Jul-23 12:33N 36°29' W 001°03'3316.3
2014-Jul-23 10:32N 36°24' W 001°43'1616.4
2014-Jul-23 09:33N 36°22' W 002°03'1716.2
2014-Jul-23 08:32N 36°20' W 002°23'14417.0
2014-Jul-23 00:04N 35°59' W 005°20'10815.9
2014-Jul-22 17:19N 36°09' W 007°33'1617.0
2014-Jul-22 16:22N 36°13' W 007°52'1316.8
2014-Jul-22 15:33N 36°16' W 008°09'1716.9
2014-Jul-22 14:33N 36°19' W 008°30'1716.8
2014-Jul-22 13:33N 36°23' W 008°50'1716.7
2014-Jul-22 12:33N 36°26' W 009°10'1616.0
2014-Jul-22 11:33N 36°34' W 009°27'1716.7
2014-Jul-22 10:33N 36°48' W 009°40'1716.8
2014-Jul-22 09:33N 37°04' W 009°45'1717.2
2014-Jul-22 08:33N 37°21' W 009°49'1716.9
2014-Jul-22 07:33N 37°37' W 009°53'1717.1
2014-Jul-22 06:33N 37°54' W 009°58'1717.0
2014-Jul-22 05:33N 38°11' W 010°03'1717.3
2014-Jul-22 04:33N 38°27' W 010°08'1817.0
2014-Jul-22 03:31N 38°45' W 010°12'2117.4
2014-Jul-22 02:19N 39°06' W 010°13'3017.2
2014-Jul-22 00:34N 39°36' W 010°13'71215.7
2014-Jul-20 03:10N 50°04' W 002°21'2813.8
2014-Jul-20 01:07N 50°13' W 001°39'813.5
2014-Jul-20 00:33N 50°15' W 001°27'1614.8
2014-Jul-19 23:29N 50°20' W 001°04'1616.6
2014-Jul-19 22:33N 50°24' W 000°41'4017.5
2014-Jul-19 20:14N 50°35' E 000°20'1217.1
2014-Jul-19 19:33N 50°40' E 000°38'1616.1
2014-Jul-19 18:33N 50°49' E 000°59'1514.9
2014-Jul-19 17:33N 50°58' E 001°17'1414.0
2014-Jul-19 16:33N 51°08' E 001°33'1514.5
2014-Jul-19 15:34N 51°18' E 001°50'1212.5
2014-Jul-19 14:34N 51°23' E 002°08'1515.4
2014-Jul-19 13:33N 51°23' E 002°33'1514.9
2014-Jul-19 12:33N 51°23' E 002°57'1716.7
2014-Jul-19 11:33N 51°25' E 003°23'1212.0
2014-Jul-19 10:34N 51°24' E 003°43'1211.9
2014-Jul-19 09:34N 51°26' E 004°02'1110.7
2014-Jul-19 08:34N 51°21' E 004°17'  
Track history (hours):
 
Tides and Currents Weather Stations Pressure Air Temp Water Temp Dewpoint Dewpoint Depression Visibility Wind Speed Wind Dir Waves Ship Positions

Gas Snapper

Last reported at 2014-Jul-29 08:30 UTC. Time now 2014-Jul-29 19:01 UTC.
Position N 45°26' E 031°17'.

Length 174 m; draft 7.3 m.

Type: Ship (hazmat cat D). MMSI: 538003911.

Date/timePositionNaut miles runAvg speedWind from/ knotsBaromVisibWave heightAir tempDewpointWater temp
2014-Jul-29 08:30N 45°26' E 031°17'1414.8
2014-Jul-29 07:32N 45°12' E 031°16'1515.1
2014-Jul-29 06:33N 44°58' E 031°09'32510.1
2014-Jul-27 22:31N 40°30' E 026°59'1413.4
2014-Jul-27 21:29N 40°24' E 026°42'3411.6
2014-Jul-27 18:33N 40°01' E 026°10'1312.8
2014-Jul-27 17:34N 39°53' E 025°56'5 5.5
2014-Jul-27 16:33N 39°48' E 025°56'0 0.0
2014-Jul-27 15:21N 39°48' E 025°56'0 0.0
2014-Jul-27 14:33N 39°48' E 025°56'0 0.0
2014-Jul-27 13:28N 39°48' E 025°56'0 0.0
2014-Jul-27 12:33N 39°48' E 025°56'0 0.0
2014-Jul-27 11:33N 39°48' E 025°56'0 0.0
2014-Jul-27 10:33N 39°48' E 025°56'0 0.0
2014-Jul-27 09:22N 39°48' E 025°56'0 0.0
2014-Jul-27 07:14N 39°48' E 025°56'4 4.2
2014-Jul-27 06:20N 39°45' E 025°53'911.1
2014-Jul-27 05:32N 39°39' E 025°44'1515.5
2014-Jul-27 04:34N 39°26' E 025°36'4715.2
2014-Jul-27 01:29N 38°44' E 025°08'7515.1
2014-Jul-26 20:31N 37°36' E 024°27'3615.5
2014-Jul-26 18:10N 37°04' E 024°07'1016.0
2014-Jul-26 17:33N 36°55' E 024°03'42014.7
2014-Jul-25 13:04N 36°24' E 015°21'816.6
2014-Jul-25 12:33N 36°24' E 015°11'1716.9
2014-Jul-25 11:33N 36°24' E 014°50'1717.4
2014-Jul-25 10:33N 36°24' E 014°28'1717.0
2014-Jul-25 09:33N 36°25' E 014°07'1716.7
2014-Jul-25 08:33N 36°28' E 013°47'1615.9
2014-Jul-25 07:33N 36°34' E 013°28'1515.0
2014-Jul-25 06:33N 36°39' E 013°11'1615.8
2014-Jul-25 05:33N 36°45' E 012°53'1817.6
2014-Jul-25 04:33N 36°51' E 012°32'1717.3
2014-Jul-25 03:33N 36°57' E 012°12'1716.7
2014-Jul-25 02:33N 37°04' E 011°52'3616.6
2014-Jul-25 00:24N 37°21' E 011°13'1416.1
2014-Jul-24 23:33N 37°26' E 010°57'1716.5
2014-Jul-24 22:33N 37°31' E 010°37'1716.8
2014-Jul-24 21:32N 37°34' E 010°16'1717.2
2014-Jul-24 20:33N 37°35' E 009°55'1717.3
2014-Jul-24 19:33N 37°36' E 009°33'1717.0
2014-Jul-24 18:33N 37°37' E 009°12'1716.7
2014-Jul-24 17:33N 37°37' E 008°51'1616.4
2014-Jul-24 16:33N 37°37' E 008°30'1615.8
2014-Jul-24 15:33N 37°37' E 008°10'1615.9
2014-Jul-24 14:32N 37°34' E 007°49'5216.1
2014-Jul-24 11:18N 37°27' E 006°45'1216.3
2014-Jul-24 10:33N 37°25' E 006°29'1615.8
2014-Jul-24 09:33N 37°22' E 006°10'1615.9
2014-Jul-24 08:33N 37°20' E 005°50'1716.5
2014-Jul-24 07:30N 37°18' E 005°28'1516.4
2014-Jul-24 06:33N 37°15' E 005°09'1616.2
2014-Jul-24 05:33N 37°12' E 004°49'1616.4
2014-Jul-24 04:33N 37°10' E 004°29'1716.8
2014-Jul-24 03:33N 37°08' E 004°08'1717.1
2014-Jul-24 02:33N 37°05' E 003°47'1917.8
2014-Jul-24 01:30N 37°02' E 003°24'1516.0
2014-Jul-24 00:33N 37°00' E 003°04'1717.3
2014-Jul-23 23:33N 36°58' E 002°43'1717.6
2014-Jul-23 22:33N 36°55' E 002°22'1716.9
2014-Jul-23 21:33N 36°51' E 002°01'1717.1
2014-Jul-23 20:33N 36°49' E 001°40'1616.2
2014-Jul-23 19:33N 36°47' E 001°20'1716.5
2014-Jul-23 18:33N 36°45' E 000°59'1616.3
2014-Jul-23 17:33N 36°42' E 000°39'1716.8
2014-Jul-23 16:33N 36°39' E 000°19'1716.5
2014-Jul-23 15:33N 36°37' W 000°02'1716.5
2014-Jul-23 14:33N 36°34' W 000°22'1716.8
2014-Jul-23 13:33N 36°32' W 000°43'1716.5
2014-Jul-23 12:33N 36°29' W 001°03'3316.3
2014-Jul-23 10:32N 36°24' W 001°43'1616.4
2014-Jul-23 09:33N 36°22' W 002°03'1716.2
2014-Jul-23 08:32N 36°20' W 002°23'14417.0
2014-Jul-23 00:04N 35°59' W 005°20'10815.9
2014-Jul-22 17:19N 36°09' W 007°33'1617.0
2014-Jul-22 16:22N 36°13' W 007°52'1316.8
2014-Jul-22 15:33N 36°16' W 008°09'1716.9
2014-Jul-22 14:33N 36°19' W 008°30'1716.8
2014-Jul-22 13:33N 36°23' W 008°50'1716.7
2014-Jul-22 12:33N 36°26' W 009°10'1616.0
2014-Jul-22 11:33N 36°34' W 009°27'1716.7
2014-Jul-22 10:33N 36°48' W 009°40'1716.8
2014-Jul-22 09:33N 37°04' W 009°45'1717.2
2014-Jul-22 08:33N 37°21' W 009°49'1716.9
2014-Jul-22 07:33N 37°37' W 009°53'1717.1
2014-Jul-22 06:33N 37°54' W 009°58'1717.0
2014-Jul-22 05:33N 38°11' W 010°03'1717.3
2014-Jul-22 04:33N 38°27' W 010°08'1817.0
2014-Jul-22 03:31N 38°45' W 010°12'2117.4
2014-Jul-22 02:19N 39°06' W 010°13'3017.2
2014-Jul-22 00:34N 39°36' W 010°13'71215.7
2014-Jul-20 03:10N 50°04' W 002°21'2813.8
2014-Jul-20 01:07N 50°13' W 001°39'813.5
2014-Jul-20 00:33N 50°15' W 001°27'1614.8
2014-Jul-19 23:29N 50°20' W 001°04'1616.6
2014-Jul-19 22:33N 50°24' W 000°41'4017.5
2014-Jul-19 20:14N 50°35' E 000°20'1217.1
2014-Jul-19 19:33N 50°40' E 000°38'1616.1
2014-Jul-19 18:33N 50°49' E 000°59'1514.9
2014-Jul-19 17:33N 50°58' E 001°17'1414.0
2014-Jul-19 16:33N 51°08' E 001°33'1514.5
2014-Jul-19 15:34N 51°18' E 001°50'1212.5
2014-Jul-19 14:34N 51°23' E 002°08'1515.4
2014-Jul-19 13:33N 51°23' E 002°33'1514.9
2014-Jul-19 12:33N 51°23' E 002°57'1716.7
2014-Jul-19 11:33N 51°25' E 003°23'1212.0
2014-Jul-19 10:34N 51°24' E 003°43'1211.9
2014-Jul-19 09:34N 51°26' E 004°02'1110.7
2014-Jul-19 08:34N 51°21' E 004°17'  

Dump ship's entire track history